Time;durP1;ratioP1;P1;durP2;ratioP2;P2;SDS_P1;SDS_P2;PMS_P1;PMS_P2;Temp;Humidity;BMP_temperature;BMP_pressure;BME280_temperature;BME280_humidity;BME280_pressure;Samples;Min_cycle;Max_cycle;Signal;HPM_P1;HPM_P2
2022/06/13 00:01:03;;;;;;;5.10;3.13;;;;;;;14.68;100.00;94595.41;5051246;28;20636;-69
2022/06/13 00:03:30;;;;;;;7.10;3.10;;;;;;;14.71;100.00;94589.25;5051564;28;20226;-69
2022/06/13 00:05:57;;;;;;;4.63;3.10;;;;;;;14.72;100.00;94592.78;5051507;28;20208;-69
2022/06/13 00:08:24;;;;;;;5.65;3.67;;;;;;;14.62;100.00;94596.84;5050881;28;20568;-69
2022/06/13 00:10:51;;;;;;;4.90;3.08;;;;;;;14.60;100.00;94588.22;5051515;28;20270;-69
2022/06/13 00:13:17;;;;;;;5.55;3.13;;;;;;;14.56;100.00;94598.25;5050951;28;20203;-69
2022/06/13 00:15:44;;;;;;;5.07;2.83;;;;;;;14.43;100.00;94600.28;5051203;28;20605;-69
2022/06/13 00:18:12;;;;;;;9.32;3.33;;;;;;;14.40;100.00;94600.97;5050895;28;20231;-69
2022/06/13 00:20:39;;;;;;;3.70;2.65;;;;;;;14.45;100.00;94602.66;5051240;28;20587;-69
2022/06/13 00:23:06;;;;;;;7.65;3.30;;;;;;;14.42;100.00;94598.69;5050535;28;20281;-69
2022/06/13 00:25:33;;;;;;;3.95;2.65;;;;;;;14.42;100.00;94614.25;5050703;28;20224;-69
2022/06/13 00:28:00;;;;;;;6.32;3.35;;;;;;;14.48;100.00;94607.41;5050796;28;20204;-69
2022/06/13 00:30:27;;;;;;;4.22;2.85;;;;;;;14.49;100.00;94614.41;5050805;28;20227;-69
2022/06/13 00:32:54;;;;;;;6.03;3.25;;;;;;;14.52;100.00;94611.00;5050763;28;20269;-69
2022/06/13 00:35:22;;;;;;;6.85;3.38;;;;;;;14.51;100.00;94617.59;5050749;28;20262;-69
2022/06/13 00:37:49;;;;;;;6.60;3.70;;;;;;;14.53;100.00;94620.75;5050575;28;20208;-69
2022/06/13 00:40:16;;;;;;;6.55;3.63;;;;;;;14.56;100.00;94618.13;5050505;28;20690;-69
2022/06/13 00:42:43;;;;;;;5.25;3.42;;;;;;;14.58;100.00;94607.66;5050968;28;20254;-69
2022/06/13 00:45:15;;;;;;;4.13;3.05;;;;;;;14.51;100.00;94615.66;5053501;28;20227;-69
2022/06/13 00:47:44;;;;;;;8.73;3.28;;;;;;;14.56;100.00;94625.50;5050510;28;20231;-69
2022/06/13 00:50:15;;;;;;;3.47;2.40;;;;;;;14.48;100.00;94615.59;5050964;28;20239;-69
2022/06/13 00:52:48;;;;;;;4.20;3.03;;;;;;;14.37;100.00;94618.00;5050634;28;20309;-69
2022/06/13 00:55:21;;;;;;;4.57;3.42;;;;;;;14.36;100.00;94616.41;5050206;28;20227;-69
2022/06/13 00:57:49;;;;;;;4.43;2.70;;;;;;;14.38;100.00;94618.78;5050104;28;20246;-69
2022/06/13 01:00:18;;;;;;;11.50;3.30;;;;;;;14.37;100.00;94614.47;5054643;28;20275;-69
2022/06/13 01:02:48;;;;;;;6.10;3.05;;;;;;;14.41;100.00;94604.50;5054545;28;20660;-69
2022/06/13 01:05:19;;;;;;;5.40;3.03;;;;;;;14.44;100.00;94606.53;5055097;28;20203;-69
2022/06/13 01:07:49;;;;;;;5.28;2.95;;;;;;;14.45;100.00;94597.22;5054764;28;20195;-69
2022/06/13 01:13:04;;;;;;;12.55;3.15;;;;;;;14.32;100.00;94603.88;5054487;28;20230;-69
2022/06/13 01:16:06;;;;;;;4.18;2.85;;;;;;;14.31;100.00;94597.63;5054403;28;20301;-69
2022/06/13 01:18:48;;;;;;;2.95;2.47;;;;;;;14.30;99.78;94601.50;5039663;28;20665;-69
2022/06/13 01:21:22;;;;;;;6.30;2.70;;;;;;;14.27;100.00;94599.47;5053840;28;20235;-69
2022/06/13 01:24:13;;;;;;;3.78;2.92;;;;;;;14.31;100.00;94599.56;5054444;28;20220;-69
2022/06/13 01:27:04;;;;;;;6.45;2.85;;;;;;;14.22;100.00;94595.06;5040297;28;20618;-69
2022/06/13 01:29:50;;;;;;;4.53;2.92;;;;;;;14.31;100.00;94591.38;5053184;28;20223;-69
2022/06/13 01:32:30;;;;;;;4.93;3.25;;;;;;;14.29;100.00;94593.66;5054189;28;20232;-69
2022/06/13 01:35:08;;;;;;;4.22;2.90;;;;;;;14.31;100.00;94594.09;5054339;28;20196;-69
2022/06/13 01:37:52;;;;;;;5.28;3.42;;;;;;;14.36;100.00;94588.38;5054280;28;20215;-69
2022/06/13 01:40:31;;;;;;;5.90;3.30;;;;;;;14.29;100.00;94593.66;5053525;28;20254;-69
2022/06/13 01:43:08;;;;;;;4.25;3.08;;;;;;;14.30;100.00;94601.50;5041290;28;20227;-69
2022/06/13 01:45:41;;;;;;;4.72;2.53;;;;;;;14.19;100.00;94606.69;5056583;28;20307;-69
2022/06/13 01:48:20;;;;;;;3.70;3.03;;;;;;;14.20;100.00;94610.97;5053883;28;20302;-69
2022/06/13 01:50:54;;;;;;;8.85;2.85;;;;;;;14.23;100.00;94602.09;5053556;28;20191;-69
2022/06/13 01:53:27;;;;;;;6.05;3.13;;;;;;;14.29;100.00;94599.09;5053731;28;20241;-69
2022/06/13 01:56:01;;;;;;;5.07;2.85;;;;;;;14.35;100.00;94603.16;5041097;28;20214;-69
2022/06/13 01:58:37;;;;;;;5.80;2.70;;;;;;;14.38;100.00;94605.16;5052525;28;20210;-69
2022/06/13 02:01:09;;;;;;;5.72;3.38;;;;;;;14.42;99.74;94598.69;5053551;28;20231;-69
2022/06/13 02:03:43;;;;;;;4.72;3.15;;;;;;;14.39;99.53;94598.56;5053188;28;20283;-70
2022/06/13 02:06:17;;;;;;;4.65;2.95;;;;;;;14.31;99.72;94610.44;5053493;28;20192;-69
2022/06/13 02:08:50;;;;;;;4.85;2.75;;;;;;;14.29;99.81;94615.47;5052674;28;20188;-69
2022/06/13 02:11:22;;;;;;;5.03;3.00;;;;;;;14.29;99.90;94615.47;5053207;28;20219;-69
2022/06/13 02:13:55;;;;;;;4.40;3.05;;;;;;;14.24;99.55;94617.28;5052923;28;20740;-69
2022/06/13 02:16:25;;;;;;;5.65;3.40;;;;;;;14.21;99.43;94620.72;5053733;28;20192;-69
2022/06/13 02:19:00;;;;;;;4.15;2.70;;;;;;;14.18;99.50;94620.66;5053124;28;20231;-69
2022/06/13 02:21:36;;;;;;;6.97;3.60;;;;;;;14.20;99.70;94619.16;5053048;28;20276;-68
2022/06/13 02:24:06;;;;;;;4.45;3.00;;;;;;;14.25;99.39;94615.34;5052967;28;20199;-69
2022/06/13 02:26:35;;;;;;;4.32;2.90;;;;;;;14.32;99.39;94621.00;5053564;28;20211;-69
2022/06/13 02:29:09;;;;;;;4.38;3.10;;;;;;;14.26;99.73;94610.69;5052616;28;20274;-69
2022/06/13 02:31:41;;;;;;;4.82;3.40;;;;;;;14.23;99.71;94623.88;5040185;28;20231;-70
2022/06/13 02:34:16;;;;;;;4.57;3.15;;;;;;;14.20;99.78;94621.88;5052657;28;20597;-69
2022/06/13 02:36:47;;;;;;;5.13;3.42;;;;;;;14.21;99.91;94614.50;5053107;28;20250;-69
2022/06/13 02:39:20;;;;;;;4.63;2.88;;;;;;;14.22;99.94;94616.84;5052762;28;20613;-68
2022/06/13 02:41:54;;;;;;;5.32;2.97;;;;;;;14.27;99.63;94617.75;5053104;28;20265;-69
2022/06/13 02:44:28;;;;;;;5.07;3.00;;;;;;;14.26;99.13;94621.59;5054894;28;20211;-68
2022/06/13 02:46:59;;;;;;;4.30;2.88;;;;;;;14.27;99.39;94623.97;5052555;28;20227;-68
2022/06/13 02:49:34;;;;;;;4.47;2.67;;;;;;;14.19;99.45;94617.56;5052622;28;20738;-68
2022/06/13 02:52:20;;;;;;;5.72;3.40;;;;;;;14.21;99.72;94615.25;5052724;28;20195;-68
2022/06/13 02:54:51;;;;;;;7.03;3.33;;;;;;;14.28;100.00;94620.13;5052558;28;20196;-68
2022/06/13 02:57:41;;;;;;;5.05;3.45;;;;;;;14.26;100.00;94621.59;5052884;28;20274;-68
2022/06/13 03:00:30;;;;;;;5.20;3.15;;;;;;;14.34;100.00;94623.38;5052221;28;20195;-68
2022/06/13 03:03:13;;;;;;;4.30;2.70;;;;;;;14.55;100.00;94629.38;5051816;28;20654;-68
2022/06/13 03:06:02;;;;;;;7.35;3.50;;;;;;;14.73;100.00;94630.59;5040227;28;20273;-69
2022/06/13 03:08:49;;;;;;;5.72;3.55;;;;;;;15.17;100.00;94622.25;5049247;28;20203;-69
2022/06/13 03:11:49;;;;;;;6.13;3.75;;;;;;;15.99;100.00;94620.03;5052507;28;20199;-69
2022/06/13 03:14:56;;;;;;;8.15;4.07;;;;;;;16.39;93.70;94628.97;5051271;28;20235;-69
2022/06/13 03:17:29;;;;;;;6.32;3.90;;;;;;;16.74;91.67;94621.38;5000303;28;20260;-69
2022/06/13 03:20:06;;;;;;;5.32;4.38;;;;;;;17.46;90.52;94613.06;5009662;28;20643;-69
2022/06/13 03:22:42;;;;;;;5.53;4.88;;;;;;;18.38;86.09;94624.31;5035066;28;20231;-68
2022/06/13 03:25:15;;;;;;;6.90;3.90;;;;;;;19.35;83.70;94621.19;5039592;28;20278;-68
2022/06/13 03:27:46;;;;;;;7.68;4.00;;;;;;;19.73;78.99;94617.88;5052100;28;20293;-69
2022/06/13 03:30:17;;;;;;;5.10;3.90;;;;;;;19.78;76.76;94624.97;5051199;28;20684;-69
2022/06/13 03:33:39;;;;;;;3.65;2.53;;;;;;;19.72;76.01;94630.03;5051495;28;20238;-68
2022/06/13 03:35:35;;;;;;;4.25;2.58;;;;;;;19.62;76.37;94630.78;5051699;28;20767;-69
2022/06/13 03:38:06;;;;;;;2.83;2.30;;;;;;;20.03;76.19;94634.09;5052022;28;20204;-69
2022/06/13 03:40:37;;;;;;;4.10;3.70;;;;;;;20.99;76.48;94623.28;5051697;28;20599;-69
2022/06/13 03:43:10;;;;;;;9.40;2.95;;;;;;;21.60;71.93;94624.00;5051620;28;20223;-68
2022/06/13 03:45:42;;;;;;;6.07;4.03;;;;;;;22.57;71.01;94619.66;5051215;28;20282;-69
2022/06/13 03:48:13;;;;;;;5.85;3.92;;;;;;;22.17;68.39;94618.31;5042274;28;20215;-69
2022/06/13 03:50:44;;;;;;;6.15;3.58;;;;;;;22.94;65.83;94627.31;5051474;28;20228;-69
2022/06/13 03:53:18;;;;;;;3.42;3.13;;;;;;;23.94;62.12;94621.63;5051679;28;20200;-69
2022/06/13 03:55:50;;;;;;;3.03;2.50;;;;;;;24.19;61.89;94630.41;5051347;28;20226;-69
2022/06/13 03:58:22;;;;;;;3.60;2.88;;;;;;;25.08;59.26;94632.75;5051800;28;20198;-69
2022/06/13 04:00:55;;;;;;;4.50;4.00;;;;;;;25.34;59.02;94628.38;5050666;28;20203;-69
2022/06/13 04:03:24;;;;;;;5.03;3.70;;;;;;;25.92;58.84;94617.03;5051244;28;20196;-69
2022/06/13 04:05:57;;;;;;;4.50;3.55;;;;;;;26.29;56.37;94618.69;5050718;28;20211;-68
2022/06/13 04:08:28;;;;;;;4.15;3.47;;;;;;;26.43;58.05;94624.72;5051499;28;20249;-69
2022/06/13 04:11:10;;;;;;;4.32;3.70;;;;;;;26.65;56.41;94615.94;5051288;28;20219;-68
2022/06/13 04:13:55;;;;;;;5.85;4.32;;;;;;;24.85;59.42;94629.16;5037854;28;20289;-69
2022/06/13 04:16:39;;;;;;;4.78;4.07;;;;;;;24.79;60.63;94626.84;5050796;28;20216;-69
2022/06/13 04:19:25;;;;;;;4.90;4.40;;;;;;;24.74;59.21;94632.84;5050557;28;20231;-69
2022/06/13 04:22:06;;;;;;;4.90;4.40;;;;;;;24.89;60.84;94627.88;5038550;28;20280;-69
2022/06/13 04:24:48;;;;;;;6.10;4.80;;;;;;;24.42;62.36;94636.09;5051281;28;20247;-69
2022/06/13 04:27:22;;;;;;;7.82;4.97;;;;;;;25.17;57.88;94628.66;5051101;28;20693;-70
2022/06/13 04:29:58;;;;;;;4.95;4.45;;;;;;;25.61;57.22;94624.72;5050692;28;20602;-69
2022/06/13 04:32:31;;;;;;;4.65;3.90;;;;;;;25.31;58.37;94623.66;5049709;28;20223;-69
2022/06/13 04:35:00;;;;;;;6.28;4.57;;;;;;;26.37;56.91;94620.13;5042903;28;20210;-69
2022/06/13 04:37:27;;;;;;;5.55;4.55;;;;;;;27.19;54.32;94613.50;5050574;28;20706;-69
2022/06/13 04:40:01;;;;;;;5.53;4.72;;;;;;;27.36;54.54;94612.25;5051025;28;20231;-69
2022/06/13 04:42:32;;;;;;;5.88;4.65;;;;;;;27.71;53.23;94615.38;5044562;28;20315;-69
2022/06/13 04:45:08;;;;;;;4.97;4.45;;;;;;;27.99;51.87;94614.59;5043860;28;20208;-69
2022/06/13 04:47:37;;;;;;;5.05;4.53;;;;;;;28.68;50.47;94608.66;5049456;28;20219;-69
2022/06/13 04:50:06;;;;;;;4.38;3.97;;;;;;;29.27;48.90;94607.97;5044771;28;20771;-70
2022/06/13 04:52:37;;;;;;;5.10;4.60;;;;;;;29.50;47.92;94610.44;5038656;28;20199;-69
2022/06/13 04:55:11;;;;;;;4.93;4.28;;;;;;;29.09;47.27;94605.78;5039135;28;20237;-70
2022/06/13 04:57:38;;;;;;;5.80;4.25;;;;;;;29.16;48.21;94602.75;5043723;28;20710;-69
2022/06/13 05:00:07;;;;;;;5.32;4.15;;;;;;;28.41;48.36;94611.84;5040164;28;20201;-69
2022/06/13 05:02:39;;;;;;;4.93;4.22;;;;;;;28.88;49.20;94604.44;5039843;28;20258;-70
2022/06/13 05:05:18;;;;;;;5.15;4.15;;;;;;;29.47;46.47;94602.97;5036274;28;20719;-70
2022/06/13 05:07:45;;;;;;;5.43;4.35;;;;;;;29.23;47.73;94598.97;5036572;28;20238;-70
2022/06/13 05:10:19;;;;;;;4.80;4.25;;;;;;;28.76;48.91;94605.19;5048191;28;20223;-70
2022/06/13 05:12:50;;;;;;;6.65;4.40;;;;;;;28.42;48.11;94602.28;5047796;28;20215;-69
2022/06/13 05:15:20;;;;;;;6.18;4.70;;;;;;;27.36;51.01;94615.03;5047881;28;20272;-70
2022/06/13 05:18:20;;;;;;;7.53;5.30;;;;;;;28.68;49.32;94603.84;5042328;28;20200;-70
2022/06/13 05:20:59;;;;;;;5.63;4.95;;;;;;;30.64;45.48;94598.75;5046499;28;20287;-69
2022/06/13 05:23:53;;;;;;;4.82;4.30;;;;;;;30.36;43.61;94595.00;5036642;28;20272;-70
2022/06/13 05:26:29;;;;;;;6.07;5.10;;;;;;;27.45;50.41;94622.78;5047215;28;20275;-69
2022/06/13 05:28:57;;;;;;;6.63;5.15;;;;;;;25.05;57.04;94627.25;5049160;28;20310;-70
2022/06/13 05:31:28;;;;;;;9.73;5.47;;;;;;;22.69;64.15;94639.28;5048939;28;20211;-70
2022/06/13 05:33:56;;;;;;;6.72;5.93;;;;;;;21.91;67.41;94638.88;5048520;28;20637;-70
2022/06/13 05:36:26;;;;;;;6.68;5.28;;;;;;;21.46;69.39;94632.31;5048158;28;20199;-69
2022/06/13 05:38:56;;;;;;;7.68;5.35;;;;;;;23.19;64.31;94632.66;5047377;28;20608;-70
2022/06/13 05:41:25;;;;;;;7.72;5.50;;;;;;;25.71;57.85;94612.66;5036856;28;20211;-69
2022/06/13 05:43:51;;;;;;;6.63;5.80;;;;;;;26.68;55.34;94613.06;5051810;28;20790;-70
2022/06/13 05:46:26;;;;;;;6.78;5.15;;;;;;;27.38;53.46;94609.81;5051907;28;20223;-71
2022/06/13 05:48:55;;;;;;;6.53;4.93;;;;;;;27.29;53.55;94612.44;5039811;28;20196;-71
2022/06/13 05:51:22;;;;;;;7.65;4.88;;;;;;;25.78;55.39;94615.31;5052447;28;20235;-69
2022/06/13 05:53:49;;;;;;;5.70;4.82;;;;;;;26.04;54.69;94610.84;5051382;28;20207;-70
2022/06/13 05:56:16;;;;;;;6.00;5.05;;;;;;;26.23;54.20;94607.28;5048429;28;20200;-70
2022/06/13 05:58:45;;;;;;;6.68;4.25;;;;;;;28.65;51.10;94599.16;5049535;28;20203;-70
2022/06/13 06:01:14;;;;;;;7.90;5.20;;;;;;;27.50;51.96;94611.88;5046740;28;20196;-70
2022/06/13 06:03:41;;;;;;;7.20;5.22;;;;;;;29.14;49.48;94601.63;5051454;28;20265;-70
2022/06/13 06:06:11;;;;;;;6.15;4.95;;;;;;;29.55;47.21;94597.91;5051551;28;20995;-70
2022/06/13 06:08:40;;;;;;;6.13;4.90;;;;;;;28.18;51.75;94610.06;5052027;28;20211;-70
2022/06/13 06:11:07;;;;;;;5.85;4.43;;;;;;;27.44;51.44;94622.00;5051693;28;20307;-70
2022/06/13 06:13:34;;;;;;;5.30;4.25;;;;;;;28.83;48.42;94610.59;5049746;28;20251;-71
2022/06/13 06:16:02;;;;;;;5.60;4.38;;;;;;;30.42;45.29;94609.19;5052204;28;20191;-71
2022/06/13 06:18:30;;;;;;;5.82;4.65;;;;;;;31.99;42.45;94614.88;5048271;28;20211;-70
2022/06/13 06:20:57;;;;;;;5.85;4.32;;;;;;;30.86;44.01;94607.13;5052153;28;20636;-70
2022/06/13 06:23:24;;;;;;;5.43;4.07;;;;;;;30.53;44.41;94608.78;5051654;28;20649;-70
2022/06/13 06:25:51;;;;;;;5.30;4.43;;;;;;;30.88;43.87;94610.25;5051889;28;20199;-71
2022/06/13 06:28:20;;;;;;;4.63;4.15;;;;;;;32.10;41.99;94609.63;5051508;28;20219;-70
2022/06/13 06:30:47;;;;;;;7.25;4.45;;;;;;;30.77;43.99;94620.25;5052149;28;20199;-70
2022/06/13 06:33:15;;;;;;;6.15;4.57;;;;;;;31.50;43.94;94612.94;5051824;28;20236;-70
2022/06/13 06:35:42;;;;;;;5.88;4.50;;;;;;;30.73;44.20;94617.63;5051497;28;20273;-70
2022/06/13 06:38:10;;;;;;;4.95;4.45;;;;;;;30.56;45.19;94619.06;5051768;28;20293;-70
2022/06/13 06:40:38;;;;;;;5.82;4.35;;;;;;;29.07;46.74;94618.63;5051480;28;20314;-71
2022/06/13 06:43:05;;;;;;;6.25;4.70;;;;;;;30.98;43.13;94623.03;5052223;28;20340;-71
2022/06/13 06:45:32;;;;;;;7.57;4.30;;;;;;;29.64;44.55;94629.50;5051162;28;20601;-70
2022/06/13 06:47:59;;;;;;;5.07;4.13;;;;;;;30.67;44.27;94625.03;5050690;28;20550;-70
2022/06/13 06:50:30;;;;;;;7.85;5.28;;;;;;;30.84;44.26;94629.19;5050257;28;20224;-70
2022/06/13 06:53:02;;;;;;;7.28;5.07;;;;;;;31.63;43.00;94616.38;5050677;28;20283;-71
2022/06/13 07:01:03;;;;;;;4.68;4.13;;;;;;;32.29;40.95;94618.81;5043123;28;20200;-71
2022/06/13 07:03:31;;;;;;;7.35;4.57;;;;;;;32.42;40.30;94614.56;5043661;28;20228;-73
2022/06/13 07:05:59;;;;;;;5.18;4.40;;;;;;;32.46;40.25;94620.81;5040989;28;20200;-71
2022/06/13 07:08:27;;;;;;;4.95;4.45;;;;;;;32.20;39.46;94616.00;5050279;28;20232;-70
2022/06/13 07:10:54;;;;;;;4.88;3.80;;;;;;;31.33;41.54;94614.44;5050454;28;20225;-71
2022/06/13 07:13:21;;;;;;;4.85;3.97;;;;;;;31.93;39.99;94616.75;5050636;28;20212;-70
2022/06/13 07:15:48;;;;;;;7.40;4.30;;;;;;;32.25;38.92;94618.97;5050901;28;20273;-70
2022/06/13 07:18:15;;;;;;;6.00;4.00;;;;;;;33.00;37.77;94601.50;5050642;28;21012;-70
2022/06/13 07:20:42;;;;;;;4.50;3.83;;;;;;;33.65;37.42;94600.72;5050837;28;20223;-71
2022/06/13 07:23:10;;;;;;;5.28;4.25;;;;;;;33.64;36.63;94609.63;5050460;28;20231;-70
2022/06/13 07:25:37;;;;;;;4.57;3.58;;;;;;;31.25;39.58;94607.59;5050782;28;20752;-70
2022/06/13 07:28:04;;;;;;;7.47;4.00;;;;;;;28.73;44.56;94613.66;5050833;28;20230;-70
2022/06/13 07:30:31;;;;;;;5.32;3.67;;;;;;;28.93;45.02;94620.63;5050739;28;20228;-70
2022/06/13 07:32:59;;;;;;;5.78;3.45;;;;;;;29.09;44.51;94624.53;5050633;28;20220;-70
2022/06/13 07:35:26;;;;;;;6.65;3.75;;;;;;;29.86;44.44;94612.00;5050663;28;20234;-71
2022/06/13 07:40:40;;;;;;;5.20;3.78;;;;;;;30.56;42.76;94616.28;5050166;28;20202;-71
2022/06/13 07:43:09;;;;;;;4.93;4.20;;;;;;;30.19;42.83;94624.41;5050071;28;20281;-71
2022/06/13 07:45:39;;;;;;;4.70;3.80;;;;;;;29.58;45.83;94619.34;5050491;28;20228;-71
2022/06/13 07:48:07;;;;;;;4.63;3.85;;;;;;;31.13;43.10;94623.28;5040572;28;20227;-71
2022/06/13 07:50:34;;;;;;;4.10;3.55;;;;;;;32.21;39.80;94621.16;5050431;28;20200;-71
2022/06/13 07:53:01;;;;;;;4.38;3.40;;;;;;;31.88;40.21;94617.38;5050573;28;20277;-71
2022/06/13 07:55:31;;;;;;;4.05;3.65;;;;;;;31.93;40.97;94622.38;5050254;28;20793;-72
2022/06/13 07:58:00;;;;;;;4.93;3.88;;;;;;;30.62;41.30;94622.81;5050408;28;20191;-71
2022/06/13 08:00:31;;;;;;;4.40;3.22;;;;;;;29.65;44.90;94625.47;5050227;28;20215;-71
2022/06/13 08:02:59;;;;;;;3.75;3.10;;;;;;;29.74;45.36;94612.81;5049866;28;20702;-71
2022/06/13 08:05:26;;;;;;;3.92;3.53;;;;;;;29.51;46.02;94625.97;5049968;28;20808;-71
2022/06/13 08:07:52;;;;;;;4.85;3.78;;;;;;;27.94;46.91;94629.84;5048880;28;20247;-71
2022/06/13 08:10:20;;;;;;;5.13;3.90;;;;;;;29.00;45.98;94617.59;5049806;28;20291;-71
2022/06/13 08:12:47;;;;;;;7.05;4.07;;;;;;;26.86;49.38;94624.56;5045927;28;20305;-71
2022/06/13 08:15:16;;;;;;;4.47;3.60;;;;;;;28.47;48.48;94622.00;5040848;28;20236;-71
2022/06/13 08:17:43;;;;;;;3.70;3.38;;;;;;;29.09;44.94;94619.75;5042376;28;20621;-70
2022/06/13 08:20:11;;;;;;;4.93;3.65;;;;;;;28.72;44.73;94626.81;5047030;28;20613;-71
2022/06/13 08:22:43;;;;;;;4.07;3.30;;;;;;;29.21;45.96;94616.16;5044590;28;20288;-71
2022/06/13 08:25:17;;;;;;;4.38;3.67;;;;;;;28.51;44.11;94619.91;5039879;28;20220;-70
2022/06/13 08:27:43;;;;;;;3.80;3.40;;;;;;;29.30;43.54;94621.03;5047451;28;20266;-71
2022/06/13 08:30:11;;;;;;;4.38;3.13;;;;;;;29.73;43.42;94630.81;5048399;28;20203;-71
2022/06/13 08:32:39;;;;;;;4.18;3.55;;;;;;;29.64;43.32;94618.34;5034290;28;20718;-71
2022/06/13 08:35:06;;;;;;;4.03;3.60;;;;;;;29.28;44.36;94623.50;5035271;28;20778;-72
2022/06/13 08:37:33;;;;;;;5.03;3.65;;;;;;;29.37;44.10;94620.81;5049613;28;20277;-72
2022/06/13 08:40:02;;;;;;;4.95;3.28;;;;;;;28.41;44.57;94634.16;5049222;28;20281;-72
2022/06/13 08:42:34;;;;;;;4.13;3.28;;;;;;;27.43;47.14;94639.13;5047945;28;20316;-72
2022/06/13 08:45:07;;;;;;;4.22;3.83;;;;;;;28.02;46.07;94641.56;5052025;28;20282;-73
2022/06/13 08:47:46;;;;;;;5.82;3.70;;;;;;;28.58;44.93;94630.03;5050125;28;20203;-72
2022/06/13 08:50:28;;;;;;;5.32;3.35;;;;;;;29.63;43.03;94616.78;5047539;28;20210;-73
2022/06/13 08:52:58;;;;;;;4.05;3.30;;;;;;;30.34;42.17;94614.25;5049809;28;20195;-72
2022/06/13 08:55:35;;;;;;;4.18;3.15;;;;;;;30.11;42.70;94622.31;5049607;28;20209;-73
2022/06/13 08:58:15;;;;;;;5.28;2.85;;;;;;;29.30;44.62;94619.03;5049783;28;20195;-72
2022/06/13 09:00:48;;;;;;;4.63;3.25;;;;;;;29.81;42.89;94616.13;5035984;28;20228;-72
2022/06/13 09:03:21;;;;;;;3.53;3.05;;;;;;;29.37;43.10;94620.81;5048981;28;20246;-72
2022/06/13 09:05:53;;;;;;;3.63;3.20;;;;;;;28.00;45.63;94632.09;5046927;28;20208;-72
2022/06/13 09:08:28;;;;;;;4.32;3.45;;;;;;;26.90;48.24;94625.28;5041415;28;20223;-72
2022/06/13 09:11:03;;;;;;;3.55;3.13;;;;;;;27.40;47.20;94621.31;5042021;28;20204;-73
2022/06/13 09:13:37;;;;;;;6.22;3.50;;;;;;;26.47;48.78;94630.22;5040607;28;20224;-72
2022/06/13 09:16:11;;;;;;;7.18;3.70;;;;;;;26.36;49.34;94629.66;5041972;28;20588;-72
2022/06/13 09:18:47;;;;;;;5.07;3.60;;;;;;;26.07;49.22;94618.34;5036642;28;20206;-72
2022/06/13 09:21:22;;;;;;;3.58;3.03;;;;;;;27.19;47.19;94625.41;5052501;28;20230;-73
2022/06/13 09:23:57;;;;;;;6.43;3.33;;;;;;;27.44;46.57;94613.66;5053088;28;20215;-72
2022/06/13 09:26:29;;;;;;;4.40;3.75;;;;;;;28.65;45.66;94610.31;5053273;28;20589;-72
2022/06/13 09:29:04;;;;;;;4.32;3.22;;;;;;;28.38;46.90;94612.72;5052860;28;20258;-72
2022/06/13 09:31:35;;;;;;;4.40;3.80;;;;;;;27.67;47.39;94614.69;5044508;28;20238;-73
2022/06/13 09:34:11;;;;;;;4.45;3.50;;;;;;;27.33;47.65;94613.16;5053040;28;20290;-72
2022/06/13 09:36:44;;;;;;;5.45;3.30;;;;;;;27.46;47.56;94616.00;5053174;28;20294;-72
2022/06/13 09:39:15;;;;;;;4.75;4.13;;;;;;;26.87;47.97;94603.91;5052663;28;20649;-72
2022/06/13 09:41:58;;;;;;;4.15;3.75;;;;;;;25.81;50.57;94603.38;5052820;28;20756;-73
2022/06/13 09:44:39;;;;;;;5.72;3.50;;;;;;;25.84;50.65;94605.28;5054866;28;20231;-72
2022/06/13 09:47:15;;;;;;;5.65;3.88;;;;;;;26.00;51.66;94596.25;5052594;28;20760;-72
2022/06/13 09:50:12;;;;;;;4.40;3.72;;;;;;;26.23;49.48;94606.50;5052991;28;20207;-72
2022/06/13 09:52:46;;;;;;;5.45;4.55;;;;;;;25.78;51.02;94612.56;5040338;28;20254;-72
2022/06/13 09:55:21;;;;;;;4.00;3.63;;;;;;;25.92;50.74;94601.16;5052135;28;20567;-72
2022/06/13 09:58:05;;;;;;;5.80;4.20;;;;;;;26.17;49.43;94606.22;5052195;28;20223;-73
2022/06/13 10:00:40;;;;;;;5.32;3.97;;;;;;;27.23;49.67;94603.84;5052571;28;20211;-73
2022/06/13 10:03:19;;;;;;;4.80;3.45;;;;;;;28.07;47.94;94588.09;5038612;28;20247;-73
2022/06/13 10:05:58;;;;;;;5.03;4.05;;;;;;;27.74;47.30;94593.03;5049028;28;20267;-73
2022/06/13 10:08:42;;;;;;;6.70;3.92;;;;;;;27.39;47.43;94600.25;5052264;28;20199;-73
2022/06/13 10:11:16;;;;;;;4.75;4.13;;;;;;;27.54;47.03;94601.47;5051901;28;20219;-73
2022/06/13 10:14:03;;;;;;;4.05;3.60;;;;;;;27.48;48.11;94592.06;5039146;28;20243;-74
2022/06/13 10:16:45;;;;;;;5.25;3.97;;;;;;;26.89;48.35;94595.91;5042569;28;20706;-70
2022/06/13 10:19:28;;;;;;;4.78;3.92;;;;;;;26.86;48.92;94590.41;5041897;28;20261;-73
2022/06/13 10:22:09;;;;;;;4.55;3.65;;;;;;;26.79;47.68;94599.69;5040741;28;20196;-72
2022/06/13 10:24:47;;;;;;;5.60;4.18;;;;;;;27.22;48.33;94587.56;5051956;28;20291;-73
2022/06/13 10:27:22;;;;;;;5.65;4.18;;;;;;;27.65;47.24;94589.28;5052817;28;20640;-72
2022/06/13 10:30:10;;;;;;;5.10;4.20;;;;;;;27.85;45.82;94578.78;5053176;28;20219;-73
2022/06/13 10:32:49;;;;;;;4.45;3.78;;;;;;;28.65;44.91;94571.28;5050704;28;20202;-72
2022/06/13 10:35:30;;;;;;;4.78;3.55;;;;;;;28.85;43.92;94568.28;5051743;28;20188;-73
2022/06/13 10:38:12;;;;;;;4.32;3.72;;;;;;;28.56;44.29;94560.03;5052857;28;20188;-72
2022/06/13 10:40:41;;;;;;;5.38;4.32;;;;;;;28.06;47.96;94564.25;5052667;28;20227;-72
2022/06/13 10:43:09;;;;;;;5.70;4.20;;;;;;;27.64;46.35;94571.00;5052367;28;20231;-72
2022/06/13 10:45:39;;;;;;;6.32;4.45;;;;;;;27.96;48.21;94551.41;5052457;28;20333;-72
2022/06/13 10:48:13;;;;;;;4.75;4.20;;;;;;;27.76;45.37;94561.94;5053033;28;20215;-72
2022/06/13 10:50:44;;;;;;;4.40;3.97;;;;;;;28.16;44.26;94548.44;5052502;28;20207;-73
2022/06/13 10:53:19;;;;;;;5.30;4.28;;;;;;;28.63;43.83;94543.06;5053022;28;20203;-73
2022/06/13 10:55:47;;;;;;;6.03;4.50;;;;;;;28.07;43.49;94539.97;5052942;28;20268;-74
2022/06/13 10:58:18;;;;;;;4.82;4.18;;;;;;;27.42;44.97;94557.66;5052963;28;20235;-73
2022/06/13 11:01:04;;;;;;;4.97;4.32;;;;;;;27.28;45.80;94543.31;5052269;28;20300;-73
2022/06/13 11:03:31;;;;;;;10.02;5.00;;;;;;;27.54;46.29;94540.22;5052534;28;20235;-73
2022/06/13 11:06:01;;;;;;;6.28;4.90;;;;;;;28.21;45.09;94523.66;5052423;28;20204;-72
2022/06/13 11:08:31;;;;;;;5.63;4.60;;;;;;;28.47;45.22;94520.88;5052624;28;20203;-73
2022/06/13 11:11:00;;;;;;;6.38;4.68;;;;;;;27.85;45.95;94526.66;5052561;28;20285;-73
2022/06/13 11:13:29;;;;;;;5.63;4.18;;;;;;;28.02;46.59;94519.00;5051735;28;20226;-73
2022/06/13 11:24:31;;;;;;;7.47;4.88;;;;;;;28.55;43.95;94502.72;5051943;28;20647;-73
2022/06/13 11:29:43;;;;;;;5.68;4.57;;;;;;;27.80;45.85;94501.34;5051645;28;20230;-72
2022/06/13 11:32:21;;;;;;;8.30;5.03;;;;;;;27.43;45.93;94500.78;5051689;28;20273;-73
2022/06/13 11:34:48;;;;;;;7.55;5.47;;;;;;;27.44;46.67;94496.78;5051735;28;20235;-72
2022/06/13 11:37:22;;;;;;;6.13;5.35;;;;;;;27.34;45.79;94486.69;5051914;28;20203;-72
2022/06/13 11:39:52;;;;;;;6.63;4.95;;;;;;;28.13;45.72;94491.63;5051833;28;20262;-74
2022/06/13 11:42:24;;;;;;;6.05;5.43;;;;;;;28.78;42.35;94474.47;5051183;28;20245;-73
2022/06/13 11:44:56;;;;;;;7.55;5.35;;;;;;;29.50;41.99;94473.63;5051362;28;20219;-73
2022/06/13 11:47:23;;;;;;;6.80;4.90;;;;;;;29.08;42.92;94469.53;5051320;28;20269;-72
2022/06/13 11:49:55;;;;;;;5.75;4.80;;;;;;;29.22;42.19;94464.22;5051291;28;20203;-72
2022/06/13 11:55:30;;;;;;;5.50;4.75;;;;;;;27.54;44.47;94473.44;5051531;28;20755;-73
2022/06/13 11:57:58;;;;;;;5.68;5.00;;;;;;;27.29;44.75;94473.34;5051336;28;20570;-74
2022/06/13 12:00:31;;;;;;;6.50;4.95;;;;;;;27.65;44.30;94475.94;5051507;28;20234;-74
2022/06/13 12:03:07;;;;;;;5.90;5.30;;;;;;;27.85;45.63;94467.41;5051520;28;20710;-74
2022/06/13 12:05:38;;;;;;;8.05;5.15;;;;;;;27.34;45.47;94481.13;5051781;28;20188;-73
2022/06/13 12:08:20;;;;;;;6.25;5.30;;;;;;;27.24;46.00;94462.75;5051516;28;20306;-74
2022/06/13 12:10:58;;;;;;;5.97;5.15;;;;;;;27.81;45.26;94452.81;5051110;28;20601;-73
2022/06/13 12:13:26;;;;;;;7.28;5.28;;;;;;;27.59;45.78;94453.44;5051047;28;20195;-73
2022/06/13 12:15:59;;;;;;;6.30;5.10;;;;;;;27.37;43.68;94449.66;5050914;28;20289;-74
2022/06/13 12:18:35;;;;;;;5.95;5.20;;;;;;;26.87;46.36;94456.53;5050989;28;20937;-74
2022/06/13 12:21:09;;;;;;;6.88;5.97;;;;;;;27.13;47.11;94448.34;5050678;28;20226;-73
2022/06/13 12:23:42;;;;;;;6.60;5.43;;;;;;;26.92;46.08;94444.88;5051008;28;20314;-74